Time;durP1;ratioP1;P1;durP2;ratioP2;P2;SDS_P1;SDS_P2;PMS_P1;PMS_P2;Temp;Humidity;BMP_temperature;BMP_pressure;BME280_temperature;BME280_humidity;BME280_pressure;Samples;Min_cycle;Max_cycle;Signal;HPM_P1;HPM_P2
2023/06/29 00:00:08;;;;;;;2.72;2.17;;;;;;;11.34;100.00;98514.00;2598930;28;20129;-95
2023/06/29 00:01:25;;;;;;;2.90;2.03;;;;;;;11.38;100.00;98507.75;2599437;28;20057;-95
2023/06/29 00:02:41;;;;;;;2.65;2.00;;;;;;;11.33;100.00;98509.66;2596737;28;20041;-94
2023/06/29 00:03:58;;;;;;;3.63;2.85;;;;;;;11.41;100.00;98519.91;2592923;28;20049;-95
2023/06/29 00:05:14;;;;;;;3.05;2.25;;;;;;;11.41;100.00;98517.28;2591702;28;20053;-94
2023/06/29 00:06:36;;;;;;;3.50;2.20;;;;;;;11.44;100.00;98517.19;2588980;28;20042;-95
2023/06/29 00:07:51;;;;;;;4.53;2.60;;;;;;;11.48;100.00;98517.97;2588227;28;20046;-94
2023/06/29 00:09:08;;;;;;;2.38;2.17;;;;;;;11.53;100.00;98523.91;2589000;28;20487;-94
2023/06/29 00:10:28;;;;;;;3.83;2.35;;;;;;;11.63;100.00;98516.63;2588289;28;20053;-95
2023/06/29 00:11:44;;;;;;;3.33;2.50;;;;;;;11.50;100.00;98518.78;2586443;28;20065;-96
2023/06/29 00:12:59;;;;;;;3.47;2.45;;;;;;;11.42;100.00;98511.97;2587311;28;20054;-94
2023/06/29 00:14:15;;;;;;;3.25;2.40;;;;;;;11.37;100.00;98519.13;2588047;28;21010;-95
2023/06/29 00:15:31;;;;;;;3.53;2.83;;;;;;;11.33;100.00;98522.78;2588533;28;20422;-95
2023/06/29 00:16:50;;;;;;;3.63;2.40;;;;;;;11.27;100.00;98521.19;2586320;28;20053;-95
2023/06/29 00:18:08;;;;;;;2.30;2.10;;;;;;;11.25;100.00;98519.50;2586570;28;20125;-95
2023/06/29 00:19:24;;;;;;;2.53;2.30;;;;;;;11.24;100.00;98520.41;2590711;28;20057;-95
2023/06/29 00:20:40;;;;;;;4.90;2.10;;;;;;;11.37;100.00;98510.41;2587377;28;20062;-95
2023/06/29 00:21:57;;;;;;;3.38;2.40;;;;;;;11.38;100.00;98513.00;2585507;28;20509;-95
2023/06/29 00:23:13;;;;;;;4.18;2.50;;;;;;;11.39;100.00;98516.50;2585920;28;20501;-94
2023/06/29 00:24:29;;;;;;;2.60;2.30;;;;;;;11.38;100.00;98512.13;2585629;28;20061;-96
2023/06/29 00:25:46;;;;;;;3.17;2.25;;;;;;;11.33;100.00;98509.66;2585292;28;20053;-94
2023/06/29 00:27:02;;;;;;;2.30;2.10;;;;;;;11.24;100.00;98516.00;2586287;28;20050;-92
2023/06/29 00:28:18;;;;;;;3.88;2.50;;;;;;;11.29;100.00;98510.63;2585964;28;20097;-95
2023/06/29 00:29:34;;;;;;;3.75;2.08;;;;;;;11.37;100.00;98513.91;2586559;28;20136;-94
2023/06/29 00:30:49;;;;;;;2.75;2.20;;;;;;;11.12;100.00;98514.63;2585411;28;20050;-94
2023/06/29 00:32:05;;;;;;;3.25;2.35;;;;;;;10.94;100.00;98516.00;2585375;28;20045;-95
2023/06/29 00:33:21;;;;;;;3.17;2.22;;;;;;;10.82;100.00;98514.59;2585327;28;20124;-93
2023/06/29 00:34:37;;;;;;;2.90;2.30;;;;;;;10.75;100.00;98513.03;2585771;28;20120;-96
2023/06/29 00:35:52;;;;;;;2.65;2.20;;;;;;;10.83;100.00;98516.31;2586355;28;20089;-95
2023/06/29 00:37:08;;;;;;;4.72;2.55;;;;;;;10.74;100.00;98519.16;2586060;28;20053;-96
2023/06/29 00:38:23;;;;;;;2.95;2.40;;;;;;;10.72;100.00;98514.00;2576033;28;20108;-94
2023/06/29 00:39:39;;;;;;;2.22;2.03;;;;;;;10.80;100.00;98513.78;2578814;28;20054;-96
2023/06/29 00:40:54;;;;;;;2.38;2.10;;;;;;;10.88;100.00;98510.94;2585619;28;20054;-94
2023/06/29 00:42:10;;;;;;;2.65;2.45;;;;;;;10.93;100.00;98508.19;2585733;28;20046;-94
2023/06/29 00:43:26;;;;;;;2.80;2.50;;;;;;;11.00;100.00;98513.22;2584594;28;20096;-94
2023/06/29 00:44:41;;;;;;;2.80;2.20;;;;;;;10.87;100.00;98507.44;2586041;28;20061;-95
2023/06/29 00:45:57;;;;;;;2.30;2.10;;;;;;;10.89;100.00;98517.91;2585364;28;20074;-95
2023/06/29 00:47:13;;;;;;;3.35;2.13;;;;;;;10.86;100.00;98508.34;2584381;28;20046;-95
2023/06/29 00:48:29;;;;;;;4.22;2.35;;;;;;;10.89;100.00;98515.28;2584960;28;20050;-95
2023/06/29 00:49:44;;;;;;;2.90;2.53;;;;;;;10.93;100.00;98514.28;2585232;28;20050;-96
2023/06/29 00:51:00;;;;;;;2.30;2.10;;;;;;;11.06;100.00;98519.19;2585791;28;20104;-96
2023/06/29 00:52:16;;;;;;;3.50;2.20;;;;;;;11.04;100.00;98503.53;2586520;28;20050;-94
2023/06/29 00:53:32;;;;;;;2.55;2.20;;;;;;;11.05;100.00;98512.22;2584698;28;20050;-95
2023/06/29 00:54:48;;;;;;;3.13;2.20;;;;;;;11.06;100.00;98512.19;2584995;28;20054;-95
2023/06/29 00:56:04;;;;;;;3.10;2.00;;;;;;;11.10;100.00;98516.44;2585526;28;20050;-95
2023/06/29 00:57:19;;;;;;;2.97;2.13;;;;;;;11.00;100.00;98505.34;2584375;28;20061;-96
2023/06/29 00:58:35;;;;;;;2.38;2.13;;;;;;;10.95;100.00;98511.63;2585656;28;20053;-95
2023/06/29 00:59:51;;;;;;;3.88;2.20;;;;;;;10.81;100.00;98512.88;2584799;28;20053;-94
2023/06/29 01:01:06;;;;;;;2.90;2.20;;;;;;;10.64;100.00;98504.63;2585845;28;20045;-96
2023/06/29 01:02:22;;;;;;;2.33;2.10;;;;;;;10.41;100.00;98519.19;2586821;28;20054;-95
2023/06/29 01:03:40;;;;;;;2.20;1.90;;;;;;;10.35;100.00;98514.09;2586578;28;20061;-95
2023/06/29 01:04:56;;;;;;;2.88;2.08;;;;;;;10.28;100.00;98516.00;2584546;28;20084;-96
2023/06/29 01:06:18;;;;;;;2.50;2.30;;;;;;;10.30;100.00;98511.59;2584507;28;20061;-94
2023/06/29 01:07:56;;;;;;;3.60;2.30;;;;;;;10.11;100.00;98508.56;2589412;28;20054;-94
2023/06/29 01:09:14;;;;;;;4.18;2.25;;;;;;;10.29;100.00;98504.63;2587269;28;20065;-94
2023/06/29 01:10:33;;;;;;;4.28;2.45;;;;;;;10.40;100.00;98512.19;2585367;28;20052;-94
2023/06/29 01:11:51;;;;;;;3.17;2.50;;;;;;;10.27;100.00;98502.06;2584958;28;20084;-94
2023/06/29 01:13:07;;;;;;;3.17;2.55;;;;;;;10.27;100.00;98509.91;2585101;28;20053;-94
2023/06/29 01:14:25;;;;;;;2.47;2.28;;;;;;;10.31;100.00;98510.69;2585811;28;20058;-94
2023/06/29 01:15:41;;;;;;;5.25;2.70;;;;;;;10.36;100.00;98505.34;2583506;28;20046;-95
2023/06/29 01:16:57;;;;;;;3.30;2.70;;;;;;;10.28;100.00;98510.78;2585877;28;20084;-94
2023/06/29 01:18:15;;;;;;;4.13;2.47;;;;;;;10.43;100.00;98510.41;2584437;28;20054;-95
2023/06/29 01:19:33;;;;;;;4.45;2.80;;;;;;;10.51;100.00;98502.34;2585288;28;20046;-93
2023/06/29 01:20:49;;;;;;;3.25;2.70;;;;;;;10.44;100.00;98503.41;2584486;28;20047;-94
2023/06/29 01:22:14;;;;;;;3.05;2.40;;;;;;;10.54;100.00;98510.09;2584192;28;20046;-94
2023/06/29 01:23:36;;;;;;;4.57;2.60;;;;;;;10.51;100.00;98502.34;2586898;28;20095;-95
2023/06/29 01:24:52;;;;;;;3.03;2.60;;;;;;;10.52;100.00;98505.81;2584664;28;20442;-94
2023/06/29 01:26:10;;;;;;;4.65;2.47;;;;;;;10.50;100.00;98507.59;2584360;28;20594;-94
2023/06/29 01:27:26;;;;;;;2.92;2.38;;;;;;;10.52;100.00;98498.81;2584676;28;20071;-94
2023/06/29 01:28:42;;;;;;;3.25;2.30;;;;;;;10.52;100.00;98500.56;2583993;28;20081;-92
2023/06/29 01:30:01;;;;;;;4.60;2.45;;;;;;;10.60;100.00;98499.47;2585831;28;20089;-93
2023/06/29 01:31:16;;;;;;;3.38;2.50;;;;;;;10.59;100.00;98495.13;2584674;28;20466;-92
2023/06/29 01:32:35;;;;;;;3.03;2.35;;;;;;;10.46;100.00;98496.34;2584833;28;20058;-92
2023/06/29 01:33:50;;;;;;;2.10;1.90;;;;;;;10.40;100.00;98499.13;2585482;28;20105;-95
2023/06/29 01:35:09;;;;;;;4.00;2.40;;;;;;;10.37;100.00;98496.59;2582835;28;20525;-94
2023/06/29 01:36:31;;;;;;;3.00;2.35;;;;;;;10.39;100.00;98500.03;2584281;28;20043;-94
2023/06/29 01:37:49;;;;;;;3.30;2.55;;;;;;;10.38;100.00;98500.91;2584371;28;20108;-93
2023/06/29 01:39:15;;;;;;;2.95;2.22;;;;;;;10.41;100.00;98501.75;2583975;28;20489;-96
2023/06/29 01:40:32;;;;;;;3.67;2.30;;;;;;;10.43;100.00;98496.44;2583956;28;20061;-95
2023/06/29 01:41:48;;;;;;;5.05;2.30;;;;;;;10.47;100.00;98499.84;2585768;28;20129;-92
2023/06/29 01:43:04;;;;;;;3.30;2.35;;;;;;;10.51;100.00;98493.63;2585170;28;20458;-93
2023/06/29 01:44:20;;;;;;;2.95;2.30;;;;;;;10.52;100.00;98495.34;2585380;28;20379;-93
2023/06/29 01:45:36;;;;;;;2.35;2.15;;;;;;;10.54;100.00;98489.16;2584785;28;20085;-93
2023/06/29 01:46:52;;;;;;;2.78;2.40;;;;;;;10.56;100.00;98494.38;2585265;28;20050;-92
2023/06/29 01:48:08;;;;;;;3.28;2.15;;;;;;;10.50;100.00;98492.78;2584266;28;20052;-93
2023/06/29 01:49:23;;;;;;;2.83;2.20;;;;;;;10.48;100.00;98484.09;2583358;28;20050;-96
2023/06/29 01:50:39;;;;;;;2.95;2.15;;;;;;;10.49;100.00;98498.91;2584102;28;20050;-93
2023/06/29 01:51:55;;;;;;;2.60;2.10;;;;;;;10.48;100.00;98494.59;2585800;28;20050;-93
2023/06/29 01:53:10;;;;;;;3.10;2.22;;;;;;;10.49;100.00;98495.41;2585406;28;20061;-92
2023/06/29 01:54:26;;;;;;;3.50;2.25;;;;;;;10.49;100.00;98492.81;2583283;28;20046;-95
2023/06/29 01:55:41;;;;;;;2.17;1.95;;;;;;;10.38;100.00;98498.31;2583983;28;20652;-95
2023/06/29 01:56:57;;;;;;;2.92;2.40;;;;;;;10.31;100.00;98495.81;2585237;28;20126;-95
2023/06/29 01:58:13;;;;;;;2.80;2.22;;;;;;;10.13;100.00;98504.16;2584791;28;20046;-93
2023/06/29 01:59:29;;;;;;;3.42;2.50;;;;;;;10.07;100.00;98492.09;2583680;28;20630;-94
2023/06/29 02:00:44;;;;;;;2.83;2.30;;;;;;;9.89;100.00;98496.88;2584625;28;20046;-95
2023/06/29 02:02:00;;;;;;;3.92;2.60;;;;;;;9.88;100.00;98499.53;2585906;28;20069;-96
2023/06/29 02:03:16;;;;;;;3.47;2.28;;;;;;;9.89;100.00;98502.13;2585288;28;20077;-94
2023/06/29 02:04:32;;;;;;;3.35;2.40;;;;;;;9.89;100.00;98496.00;2584331;28;20144;-95
2023/06/29 02:05:48;;;;;;;4.18;2.47;;;;;;;9.73;100.00;98501.63;2584180;28;20057;-95
2023/06/29 02:07:04;;;;;;;3.95;2.47;;;;;;;9.77;100.00;98498.91;2584932;28;20045;-94
2023/06/29 02:08:20;;;;;;;3.20;2.40;;;;;;;9.75;100.00;98501.59;2585322;28;20060;-95
2023/06/29 02:09:36;;;;;;;3.17;2.40;;;;;;;9.65;100.00;98497.47;2583799;28;20135;-94
2023/06/29 02:10:51;;;;;;;3.72;2.45;;;;;;;9.79;100.00;98503.22;2584996;28;20054;-95
2023/06/29 02:12:07;;;;;;;3.53;2.45;;;;;;;9.86;100.00;98498.72;2584542;28;20049;-95
2023/06/29 02:13:23;;;;;;;3.78;2.80;;;;;;;9.90;100.00;98502.97;2584154;28;20058;-93
2023/06/29 02:14:39;;;;;;;4.22;2.28;;;;;;;9.92;100.00;98498.56;2583960;28;20050;-93
2023/06/29 02:15:54;;;;;;;2.70;2.25;;;;;;;9.88;100.00;98500.41;2584636;28;20043;-95
2023/06/29 02:17:10;;;;;;;3.97;2.65;;;;;;;9.94;100.00;98498.53;2584638;28;20068;-96
2023/06/29 02:18:25;;;;;;;3.40;2.50;;;;;;;9.92;100.00;98503.81;2585558;28;20190;-95
2023/06/29 02:19:41;;;;;;;3.40;2.42;;;;;;;9.75;100.00;98498.97;2585507;28;20050;-96
2023/06/29 02:20:57;;;;;;;2.90;2.50;;;;;;;9.78;100.00;98498.03;2588019;28;20045;-96
2023/06/29 02:22:13;;;;;;;9.60;3.15;;;;;;;9.69;100.00;98502.59;2587163;28;20058;-95
2023/06/29 02:23:28;;;;;;;2.80;2.45;;;;;;;9.73;100.00;98500.78;2584552;28;20137;-94
2023/06/29 02:24:44;;;;;;;3.90;2.70;;;;;;;9.81;100.00;98500.59;2585544;28;20046;-94
2023/06/29 02:25:59;;;;;;;2.53;2.33;;;;;;;9.81;100.00;98500.59;2585007;28;20042;-95
2023/06/29 02:27:15;;;;;;;3.83;2.20;;;;;;;9.86;100.00;98501.31;2584763;28;20057;-96
2023/06/29 02:28:30;;;;;;;3.03;2.50;;;;;;;9.86;100.00;98502.19;2584492;28;20077;-95
2023/06/29 02:29:46;;;;;;;3.55;2.58;;;;;;;9.88;100.00;98504.75;2584857;28;20057;-94
2023/06/29 02:31:02;;;;;;;5.68;2.67;;;;;;;9.91;100.00;98504.69;2583049;28;20066;-95
2023/06/29 02:32:17;;;;;;;3.25;2.40;;;;;;;9.83;100.00;98499.63;2583073;28;20870;-95
2023/06/29 02:33:33;;;;;;;3.95;2.40;;;;;;;9.73;100.00;98500.78;2585590;28;20053;-94
2023/06/29 02:34:48;;;;;;;3.30;2.45;;;;;;;9.66;100.00;98509.63;2584224;28;20138;-96
2023/06/29 02:36:04;;;;;;;3.13;2.45;;;;;;;9.77;100.00;98506.75;2584532;28;20057;-95
2023/06/29 02:37:20;;;;;;;4.30;2.60;;;;;;;9.68;100.00;98505.22;2583871;28;20053;-96
2023/06/29 02:38:35;;;;;;;3.05;2.65;;;;;;;9.57;100.00;98501.13;2585116;28;20050;-94
2023/06/29 02:39:51;;;;;;;4.30;2.30;;;;;;;9.55;100.00;98500.28;2585121;28;20085;-95
2023/06/29 02:41:06;;;;;;;4.43;2.83;;;;;;;9.55;100.00;98507.28;2585510;28;20144;-96
2023/06/29 02:42:22;;;;;;;2.55;2.35;;;;;;;9.63;100.00;98500.09;2583120;28;20060;-95
2023/06/29 02:43:38;;;;;;;4.80;2.58;;;;;;;9.47;100.00;98503.06;2583923;28;20078;-95
2023/06/29 02:44:53;;;;;;;3.00;2.40;;;;;;;9.41;100.00;98499.72;2584843;28;20037;-95
2023/06/29 02:46:09;;;;;;;4.95;2.72;;;;;;;9.52;100.00;98502.13;2584008;28;20057;-95
2023/06/29 02:47:24;;;;;;;3.92;2.53;;;;;;;9.40;100.00;98498.91;2585242;28;20078;-95
2023/06/29 02:48:40;;;;;;;3.00;2.70;;;;;;;9.43;100.00;98500.59;2584938;28;20077;-95
2023/06/29 02:49:56;;;;;;;2.50;2.20;;;;;;;9.29;100.00;98506.09;2585624;28;20379;-94
2023/06/29 02:51:11;;;;;;;2.65;2.45;;;;;;;9.28;100.00;98501.78;2584117;28;20046;-94
2023/06/29 02:52:27;;;;;;;3.10;2.75;;;;;;;9.40;100.00;98503.25;2585758;28;20444;-94
2023/06/29 02:53:42;;;;;;;2.85;2.60;;;;;;;9.45;100.00;98507.47;2583978;28;20366;-93
2023/06/29 02:54:58;;;;;;;4.57;2.92;;;;;;;9.51;100.00;98500.41;2584633;28;20049;-93
2023/06/29 02:56:13;;;;;;;5.28;2.55;;;;;;;9.56;100.00;98509.00;2583226;28;20173;-95
2023/06/29 02:57:29;;;;;;;3.17;2.38;;;;;;;9.64;100.00;98511.44;2583460;28;20129;-95
2023/06/29 02:58:45;;;;;;;4.75;2.70;;;;;;;9.65;100.00;98508.78;2584495;28;20054;-95
2023/06/29 03:00:00;;;;;;;3.83;2.70;;;;;;;9.55;100.00;98505.50;2584572;28;20054;-94
2023/06/29 03:01:16;;;;;;;3.78;2.50;;;;;;;9.59;100.00;98512.41;2584072;28;20061;-94
2023/06/29 03:02:31;;;;;;;3.05;2.53;;;;;;;9.64;100.00;98501.84;2584009;28;20049;-95
2023/06/29 03:03:47;;;;;;;3.33;2.60;;;;;;;9.69;100.00;98504.34;2585611;28;20100;-94
2023/06/29 03:05:03;;;;;;;3.97;2.67;;;;;;;9.67;100.00;98509.63;2584871;28;20061;-94
2023/06/29 03:06:18;;;;;;;4.30;2.55;;;;;;;9.57;100.00;98502.88;2583602;28;20062;-94
2023/06/29 03:07:34;;;;;;;4.03;2.58;;;;;;;9.35;100.00;98503.34;2583513;28;20053;-94
2023/06/29 03:08:50;;;;;;;2.67;2.28;;;;;;;9.35;100.00;98505.09;2583498;28;20109;-95
2023/06/29 03:10:06;;;;;;;3.25;2.92;;;;;;;9.21;100.00;98498.44;2583913;28;20575;-95
2023/06/29 03:11:21;;;;;;;2.78;2.55;;;;;;;9.41;100.00;98505.84;2583354;28;20069;-94
2023/06/29 03:12:37;;;;;;;4.18;2.45;;;;;;;9.51;100.00;98510.88;2582312;28;20447;-94
2023/06/29 03:13:55;;;;;;;3.60;2.80;;;;;;;9.56;100.00;98498.53;2584267;28;20058;-94
2023/06/29 03:15:11;;;;;;;3.97;2.63;;;;;;;9.63;100.00;98509.72;2583707;28;20142;-95
2023/06/29 03:16:26;;;;;;;3.70;2.92;;;;;;;9.63;100.00;98507.09;2584676;28;20431;-94
2023/06/29 03:17:42;;;;;;;3.10;2.63;;;;;;;9.65;100.00;98516.63;2584500;28;20055;-94
2023/06/29 03:18:57;;;;;;;4.18;2.60;;;;;;;9.66;100.00;98505.28;2583833;28;20482;-95
2023/06/29 03:20:13;;;;;;;4.93;2.70;;;;;;;9.69;100.00;98499.09;2585531;28;20084;-94
2023/06/29 03:21:29;;;;;;;6.95;3.00;;;;;;;9.72;100.00;98509.50;2584537;28;20489;-95
2023/06/29 03:22:44;;;;;;;2.92;2.63;;;;;;;9.70;100.00;98506.91;2583636;28;20105;-94
2023/06/29 03:24:00;;;;;;;4.20;3.03;;;;;;;9.46;100.00;98513.56;2584424;28;20390;-95
2023/06/29 03:25:16;;;;;;;3.92;2.90;;;;;;;9.52;100.00;98512.59;2583864;28;20073;-93
2023/06/29 03:26:32;;;;;;;4.05;2.90;;;;;;;9.57;100.00;98514.19;2584563;28;20054;-94
2023/06/29 03:27:47;;;;;;;5.25;2.97;;;;;;;9.75;100.00;98515.50;2583751;28;20046;-95
2023/06/29 03:29:03;;;;;;;3.72;2.80;;;;;;;9.86;100.00;98510.03;2585559;28;20500;-94
2023/06/29 03:30:19;;;;;;;4.10;2.85;;;;;;;9.93;100.00;98509.88;2584321;28;20077;-94
2023/06/29 03:31:34;;;;;;;3.95;2.75;;;;;;;9.95;100.00;98508.09;2585190;28;20050;-96
2023/06/29 03:32:49;;;;;;;3.42;2.65;;;;;;;10.01;100.00;98507.94;2587498;28;20060;-94
2023/06/29 03:34:05;;;;;;;3.97;2.63;;;;;;;9.92;100.00;98511.66;2590878;28;20046;-95
2023/06/29 03:35:21;;;;;;;3.22;2.85;;;;;;;9.87;100.00;98505.66;2589905;28;20058;-95
2023/06/29 03:36:36;;;;;;;5.18;2.92;;;;;;;9.81;100.00;98511.03;2590155;28;20053;-95
2023/06/29 03:37:52;;;;;;;5.25;2.65;;;;;;;9.61;100.00;98512.34;2589987;28;20049;-95
2023/06/29 03:39:08;;;;;;;4.38;2.90;;;;;;;9.41;100.00;98512.81;2588610;28;20050;-95
2023/06/29 03:40:23;;;;;;;3.30;3.00;;;;;;;9.37;100.00;98503.31;2588217;28;20053;-95
2023/06/29 03:41:39;;;;;;;3.28;2.83;;;;;;;9.43;100.00;98508.44;2588948;28;20042;-95
2023/06/29 03:42:54;;;;;;;3.03;2.55;;;;;;;9.47;100.00;98504.84;2588202;28;20053;-95
2023/06/29 03:44:10;;;;;;;5.57;3.00;;;;;;;9.55;100.00;98507.28;2590212;28;20052;-95
2023/06/29 03:45:25;;;;;;;4.30;2.70;;;;;;;9.49;100.00;98508.28;2589027;28;20042;-94
2023/06/29 03:46:41;;;;;;;4.03;2.97;;;;;;;9.46;100.00;98509.19;2591273;28;20050;-95
2023/06/29 03:47:56;;;;;;;3.75;3.08;;;;;;;9.54;100.00;98503.78;2587377;28;20049;-95
2023/06/29 03:49:12;;;;;;;5.05;2.78;;;;;;;9.59;100.00;98501.06;2587350;28;20050;-95
2023/06/29 03:50:28;;;;;;;4.15;2.80;;;;;;;9.69;100.00;98507.81;2587626;28;20359;-95
2023/06/29 03:51:43;;;;;;;4.30;2.85;;;;;;;9.74;100.00;98507.72;2588291;28;20050;-96
2023/06/29 03:52:59;;;;;;;4.13;2.90;;;;;;;9.85;100.00;98495.25;2590067;28;20081;-95
2023/06/29 03:54:14;;;;;;;3.20;2.78;;;;;;;9.73;100.00;98504.22;2589070;28;20461;-96
2023/06/29 03:55:30;;;;;;;3.97;3.00;;;;;;;9.78;100.00;98500.63;2588918;28;20038;-94
2023/06/29 03:56:45;;;;;;;3.47;3.05;;;;;;;9.70;100.00;98506.91;2589763;28;20097;-95
2023/06/29 03:58:01;;;;;;;3.53;3.10;;;;;;;9.72;100.00;98505.13;2590010;28;20050;-94
2023/06/29 03:59:16;;;;;;;5.05;3.03;;;;;;;9.74;100.00;98500.72;2589597;28;20054;-96
2023/06/29 04:00:32;;;;;;;4.88;3.10;;;;;;;9.72;100.00;98505.13;2588893;28;20319;-93
2023/06/29 04:01:47;;;;;;;5.22;3.33;;;;;;;9.83;100.00;98506.63;2587526;28;20407;-94
2023/06/29 04:03:03;;;;;;;3.92;3.15;;;;;;;9.87;100.00;98503.91;2586748;28;20128;-95
2023/06/29 04:04:18;;;;;;;3.80;2.88;;;;;;;9.97;100.00;98498.44;2585741;28;20061;-95
2023/06/29 04:05:34;;;;;;;5.40;2.90;;;;;;;10.07;100.00;98502.56;2586531;28;20054;-94
2023/06/29 04:06:50;;;;;;;3.50;3.00;;;;;;;10.20;100.00;98507.47;2585025;28;20310;-93
2023/06/29 04:08:05;;;;;;;3.40;3.00;;;;;;;10.23;100.00;98502.16;2585361;28;20417;-95
2023/06/29 04:09:21;;;;;;;4.18;3.08;;;;;;;10.24;100.00;98499.53;2585498;28;20465;-95
2023/06/29 04:10:36;;;;;;;6.60;3.28;;;;;;;10.22;100.00;98503.06;2586153;28;20050;-96
2023/06/29 04:11:52;;;;;;;3.38;2.75;;;;;;;10.37;100.00;98494.81;2584824;28;20193;-94
2023/06/29 04:13:07;;;;;;;3.50;2.92;;;;;;;10.40;100.00;98506.97;2585667;28;20505;-95
2023/06/29 04:14:23;;;;;;;3.67;3.10;;;;;;;10.38;100.00;98506.16;2584449;28;20450;-94
2023/06/29 04:15:38;;;;;;;4.07;3.22;;;;;;;10.39;100.00;98511.31;2585630;28;20402;-94
2023/06/29 04:16:54;;;;;;;3.08;2.78;;;;;;;10.35;100.00;98514.09;2584773;28;20548;-94
2023/06/29 04:18:09;;;;;;;3.70;3.00;;;;;;;10.37;100.00;98509.66;2583669;28;20053;-91
2023/06/29 04:19:25;;;;;;;3.85;3.22;;;;;;;10.28;100.00;98514.22;2585377;28;20422;-91
2023/06/29 04:20:41;;;;;;;5.22;3.28;;;;;;;10.30;100.00;98512.44;2582510;28;20086;-90
2023/06/29 04:21:57;;;;;;;6.30;3.83;;;;;;;10.48;100.00;98507.66;2583821;28;20060;-91
2023/06/29 04:23:15;;;;;;;7.13;3.38;;;;;;;10.58;100.00;98513.50;2583311;28;20488;-88
2023/06/29 04:24:30;;;;;;;4.28;2.90;;;;;;;10.50;100.00;98500.63;2584396;28;20141;-91
2023/06/29 04:25:45;;;;;;;4.22;3.25;;;;;;;10.51;100.00;98509.31;2582929;28;20057;-90
2023/06/29 04:27:01;;;;;;;6.00;3.83;;;;;;;10.62;100.00;98504.66;2585127;28;20053;-90
2023/06/29 04:28:17;;;;;;;5.78;3.60;;;;;;;10.63;100.00;98503.75;2582906;28;20049;-90
2023/06/29 04:29:32;;;;;;;3.50;3.20;;;;;;;10.68;100.00;98504.47;2583734;28;20057;-91
2023/06/29 04:30:48;;;;;;;4.20;3.40;;;;;;;10.73;100.00;98505.22;2583889;28;20057;-91
2023/06/29 04:32:04;;;;;;;5.03;3.10;;;;;;;10.54;100.00;98502.25;2583338;28;20053;-90
2023/06/29 04:33:21;;;;;;;3.72;3.20;;;;;;;10.72;100.00;98503.53;2583893;28;20050;-90
2023/06/29 04:34:36;;;;;;;3.63;3.13;;;;;;;10.76;100.00;98500.81;2583300;28;20077;-91
2023/06/29 04:35:53;;;;;;;3.38;3.08;;;;;;;10.76;100.00;98500.81;2583440;28;20054;-90
2023/06/29 04:37:09;;;;;;;3.67;3.10;;;;;;;10.79;100.00;98498.09;2584311;28;20979;-90
2023/06/29 04:38:27;;;;;;;5.10;3.15;;;;;;;10.83;100.00;98503.22;2585452;28;20046;-90
2023/06/29 04:39:42;;;;;;;3.78;2.88;;;;;;;10.77;100.00;98503.41;2582746;28;20050;-90
2023/06/29 04:41:04;;;;;;;4.25;3.30;;;;;;;10.83;100.00;98505.00;2582856;28;20054;-90
2023/06/29 04:42:19;;;;;;;4.78;3.55;;;;;;;10.98;100.00;98503.69;2584647;28;20486;-90
2023/06/29 04:43:36;;;;;;;3.95;3.10;;;;;;;11.13;100.00;98494.53;2582537;28;20053;-89
2023/06/29 04:44:52;;;;;;;5.80;3.05;;;;;;;10.90;100.00;98500.44;2582954;28;20391;-90
2023/06/29 04:46:08;;;;;;;3.83;3.20;;;;;;;11.09;100.00;98500.75;2582957;28;20096;-89
2023/06/29 04:47:24;;;;;;;4.57;3.40;;;;;;;11.04;100.00;98497.41;2583321;28;20115;-89
2023/06/29 04:48:39;;;;;;;4.38;3.30;;;;;;;11.01;100.00;98487.88;2583637;28;20104;-89
2023/06/29 04:49:56;;;;;;;6.85;3.03;;;;;;;10.99;100.00;98492.28;2583464;28;20054;-89
2023/06/29 04:51:13;;;;;;;4.63;3.28;;;;;;;11.19;100.00;98494.34;2583787;28;20468;-90
2023/06/29 04:52:28;;;;;;;5.07;3.05;;;;;;;11.23;100.00;98489.88;2583495;28;20940;-90
2023/06/29 04:53:44;;;;;;;3.72;2.90;;;;;;;11.27;100.00;98491.47;2583159;28;20050;-89
2023/06/29 04:54:59;;;;;;;3.40;3.10;;;;;;;11.27;100.00;98494.97;2583243;28;20068;-89
2023/06/29 04:56:15;;;;;;;4.60;3.80;;;;;;;11.35;100.00;98501.72;2583980;28;20046;-88
2023/06/29 04:57:31;;;;;;;3.63;3.13;;;;;;;11.32;100.00;98493.97;2583365;28;20051;-91
2023/06/29 04:58:46;;;;;;;3.75;3.20;;;;;;;11.36;100.00;98493.84;2582375;28;20050;-89
2023/06/29 05:00:07;;;;;;;5.00;2.92;;;;;;;11.34;100.00;98493.03;2584283;28;20116;-88
2023/06/29 05:01:22;;;;;;;5.35;3.30;;;;;;;11.52;100.00;98486.34;2583199;28;20068;-90
2023/06/29 05:02:38;;;;;;;3.53;2.85;;;;;;;11.70;100.00;98489.31;2583642;28;20050;-89
2023/06/29 05:03:54;;;;;;;3.60;3.03;;;;;;;11.93;100.00;98485.06;2583498;28;20053;-88
2023/06/29 05:05:09;;;;;;;3.88;2.95;;;;;;;11.75;100.00;98478.69;2582715;28;20077;-88
2023/06/29 05:06:25;;;;;;;6.90;3.00;;;;;;;11.72;100.00;98482.25;2582767;28;20149;-89
2023/06/29 05:07:41;;;;;;;4.13;3.00;;;;;;;11.82;100.00;98486.28;2581145;28;20050;-87
2023/06/29 05:08:57;;;;;;;5.03;3.28;;;;;;;12.05;100.00;98478.59;2583667;28;20045;-88
2023/06/29 05:10:12;;;;;;;4.72;3.50;;;;;;;12.05;100.00;98478.59;2583798;28;20054;-89
2023/06/29 05:11:28;;;;;;;3.92;3.47;;;;;;;11.95;100.00;98484.13;2582810;28;20077;-87
2023/06/29 05:12:44;;;;;;;3.92;2.75;;;;;;;12.03;100.00;98480.44;2583818;28;20058;-89
2023/06/29 05:13:59;;;;;;;3.42;2.95;;;;;;;12.18;100.00;98489.53;2583408;28;20053;-92
2023/06/29 05:15:15;;;;;;;4.50;3.05;;;;;;;12.28;100.00;98481.28;2584225;28;20045;-88
2023/06/29 05:16:30;;;;;;;3.28;2.97;;;;;;;12.09;100.00;98482.84;2583358;28;20105;-88
2023/06/29 05:17:46;;;;;;;3.63;3.17;;;;;;;12.41;100.00;98487.00;2588032;28;20133;-89
2023/06/29 05:19:02;;;;;;;4.05;3.08;;;;;;;12.42;100.00;98485.19;2585988;28;20042;-90
2023/06/29 05:20:18;;;;;;;4.97;3.17;;;;;;;12.64;100.00;98481.84;2582989;28;20085;-89
2023/06/29 05:21:33;;;;;;;4.95;3.08;;;;;;;12.64;100.00;98484.47;2583480;28;20489;-91
2023/06/29 05:22:49;;;;;;;5.78;2.85;;;;;;;12.87;100.00;98482.78;2584955;28;20217;-87
2023/06/29 05:24:05;;;;;;;3.92;3.05;;;;;;;12.90;100.00;98478.25;2582982;28;20096;-87
2023/06/29 05:25:20;;;;;;;4.57;2.60;;;;;;;12.84;100.00;98479.31;2584625;28;20549;-89
2023/06/29 05:26:36;;;;;;;3.35;2.83;;;;;;;12.96;100.00;98485.03;2582861;28;20054;-88
2023/06/29 05:27:52;;;;;;;6.25;3.00;;;;;;;12.98;100.00;98478.81;2582278;28;20046;-89
2023/06/29 05:29:07;;;;;;;4.57;2.65;;;;;;;12.92;100.00;98480.81;2584094;28;20045;-88
2023/06/29 05:30:23;;;;;;;4.15;2.72;;;;;;;12.82;100.00;98472.44;2584705;28;20074;-90
2023/06/29 05:31:39;;;;;;;3.00;2.67;;;;;;;13.18;100.00;98474.56;2583999;28;20452;-88
2023/06/29 05:32:54;;;;;;;3.63;2.85;;;;;;;13.32;100.00;98479.31;2585182;28;20054;-87
2023/06/29 05:34:10;;;;;;;4.65;2.65;;;;;;;13.38;100.00;98478.22;2581840;28;20066;-87
2023/06/29 05:35:26;;;;;;;3.35;2.47;;;;;;;13.18;100.00;98473.75;2580460;28;20050;-86
2023/06/29 05:36:42;;;;;;;3.60;2.90;;;;;;;13.36;100.00;98473.03;2584084;28;20049;-87
2023/06/29 05:37:57;;;;;;;4.65;2.67;;;;;;;13.43;100.00;98476.25;2584718;28;20383;-87
2023/06/29 05:39:13;;;;;;;4.07;2.50;;;;;;;13.68;100.00;98473.53;2582049;28;20443;-87
2023/06/29 05:40:29;;;;;;;4.63;2.50;;;;;;;13.49;100.00;98478.69;2584536;28;20601;-86
2023/06/29 05:41:45;;;;;;;4.22;2.60;;;;;;;13.50;100.00;98471.66;2583104;28;20053;-87
2023/06/29 05:43:00;;;;;;;3.58;2.70;;;;;;;13.68;100.00;98470.91;2583062;28;20093;-86
2023/06/29 05:44:15;;;;;;;4.88;2.40;;;;;;;13.76;100.00;98477.66;2583582;28;20513;-87
2023/06/29 05:45:31;;;;;;;3.97;2.45;;;;;;;13.82;100.00;98462.47;2584800;28;20053;-87
2023/06/29 05:46:47;;;;;;;2.33;2.13;;;;;;;14.08;100.00;98470.19;2584561;28;20046;-87
2023/06/29 05:48:02;;;;;;;2.97;2.50;;;;;;;13.89;100.00;98473.59;2583238;28;20050;-87
2023/06/29 05:49:18;;;;;;;3.15;2.50;;;;;;;14.22;100.00;98469.63;2581856;28;20042;-87
2023/06/29 05:50:33;;;;;;;9.45;2.53;;;;;;;14.39;100.00;98463.66;2583933;28;20077;-87
2023/06/29 05:51:50;;;;;;;3.50;2.30;;;;;;;14.45;100.00;98463.38;2583924;28;20485;-88
2023/06/29 05:53:06;;;;;;;3.17;2.47;;;;;;;14.54;100.00;98462.97;2582527;28;20073;-87
2023/06/29 05:54:21;;;;;;;4.68;2.30;;;;;;;14.44;100.00;98460.78;2582779;28;20136;-90
2023/06/29 05:55:37;;;;;;;3.20;2.25;;;;;;;14.57;100.00;98463.75;2582320;28;20062;-89